Thursday, April 26, 2018, 4:58 PM EDT
Back to Local

KDKK, Chautauqua County/dunkirk

Location: Dunkirk, NY, United States Lat: 42.5
Local Time: 4:58 PM EDT (20:58 GMT) Lon: -79.283
Time Zone: US/Eastern Elev: 692 ft

Show me the last for .
Show Coded

Time T Td Feel RH Dir Speed Gust Alt SLP Vis Weather Sky Remarks
2018-04-26 15:53 50 33 45 52 260° 13 - 29.91 29.92 10 CLR None
2018-04-26 14:53 50 33 43 52 250° 16 22 29.92 29.93 10 CLR None
2018-04-26 13:53 49 35 41 58 250° 16 24 29.92 29.93 10 CLR 6-hr Min Temp (2pm): 37.9°F
6-hr Max Temp (2pm): 48.9°F
2018-04-26 12:53 47 36 41 65 270° 13 - 29.92 29.93 10 CLR None
2018-04-26 11:53 46 35 39 65 220° 17 - 29.92 29.93 10 CLR None
2018-04-26 10:53 43 35 34 73 230° 17 21 29.92 29.93 10 OVC060 None
2018-04-26 09:53 40 35 32 82 240° 14 - 29.91 29.93 10 OVC060 None
2018-04-26 08:53 39 34 31 81 240° 13 - 29.91 29.93 10 OVC044 None
2018-04-26 07:53 38 34 30 85 240° 12 - 29.89 29.91 10 FEW024 OVC034 24-hr Precip Total (8am): 0.07"
6-hr Min Temp (8am): 37.9°F
6-hr Max Temp (8am): 37.9°F
2018-04-26 07:27 38 34 30 85 230° 13 - 29.88 - 10 FEW025 OVC032 None
2018-04-26 06:53 38 35 30 89 240° 12 - 29.87 29.88 10 OVC024 None
2018-04-26 05:53 38 35 31 89 240° 10 - 29.84 29.85 10 OVC017 None
2018-04-26 05:30 38 35 27 89 240° 14 22 29.84 - 10 OVC015 None
2018-04-26 04:53 38 35 27 89 240° 13 22 29.83 29.85 10 OVC014 None
2018-04-26 03:53 38 36 31 92 240° 10 - 29.83 29.84 10 OVC014 None
2018-04-26 02:53 38 35 31 89 240° 10 - 29.83 29.84 10 OVC016 None
2018-04-26 02:38 38 35 30 89 240° 12 - 29.83 - 10 OVC014 None
2018-04-26 01:53 38 35 30 89 240° 12 - 29.83 29.84 10 OVC016 6-hr Min Temp (2am): 37.9°F
6-hr Max Temp (2am): 44.1°F
2018-04-26 00:53 39 34 31 81 250° 13 - 29.85 29.86 10 OVC019 24-hr Min Temp (1am): 37.9°F
24-hr Max Temp (1am): 52.0°F
2018-04-25 23:53 38 36 30 92 260° 13 - 29.86 29.87 10 OVC016 None
2018-04-25 23:34 39 36 29 88 260° 14 22 29.86 - 10 OVC015 None
2018-04-25 23:00 40 37 30 89 260° 12 21 29.86 - 10 OVC014 None
2018-04-25 22:53 40 38 30 92 250° 13 21 29.86 29.87 10 OVC015 None
2018-04-25 21:53 42 40 35 91 240° 13 - 29.86 29.87 10 OVC016 None
2018-04-25 21:11 42 40 34 91 250° 10 18 29.85 - 10 OVC016 None
2018-04-25 20:53 43 41 34 92 240° 14 21 29.84 29.85 10 OVC014 None
2018-04-25 20:11 44 42 38 92 250° 12 - 29.83 - 10 OVC011 None
2018-04-25 19:53 44 43 38 95 240° 13 - 29.82 29.83 10 OVC007 1-hr Precip Total: Trace
6-hr Precip Total (8pm): 0.07"
6-hr Min Temp (8pm): 43.0°F
6-hr Max Temp (8pm): 52.0°F
2018-04-25 19:24 43 43 36 100 240° 13 - 29.81 - 9 OVC005 1-hr Precip Total: Trace
2018-04-25 18:53 44 43 36 95 230° 14 21 29.81 29.82 3 -RA BR OVC004 1-hr Precip Total: 0.06"
2018-04-25 18:01 45 44 38 96 230° 16 - 29.80 - 1 -RA BR OVC004 1-hr Precip Total: 0.01"
2018-04-25 17:53 45 44 36 96 230° 17 23 29.80 29.81 3 -RA BR OVC004 1-hr Precip Total: Trace

Support USWX by starting your Amazon purchase here.